Terminal Aerodrome Forecast
Issued by NWS

Current Version | Previous Version | Text Only | Print | Product List | Glossary Off
Versions: 1 2 3 4 5 6 7 8 9 10 11 12 13 14 15 16 17 18 19 20 21 22 23 24

000
FTUS41 KILN 112332
TAFLUK
TAF
KLUK 112332Z 1200/1224 15004KT P6SM BKN200
     FM120300 24008KT P6SM BKN200
     FM120600 28012G21KT P6SM BKN025
     FM120900 30015G28KT P6SM VCSH OVC018
     FM121600 30015G28KT P6SM VCSH BKN025
     FM122000 30011G20KT P6SM BKN035
     FM122300 30010KT P6SM SCT035=

USA.gov is the U.S. government's official web portal to all federal, state and local government web resources and services.